sensor_id;sensor_type;location;lat;lon;timestamp;P1;durP1;ratioP1;P2;durP2;ratioP2
70455;SDS011;57916;51.996;5.180;2022-11-20T00:01:05;20.73;;;11.50;;
70455;SDS011;57916;51.996;5.180;2022-11-20T00:03:37;18.08;;;11.13;;
70455;SDS011;57916;51.996;5.180;2022-11-20T00:06:04;25.52;;;11.80;;
70455;SDS011;57916;51.996;5.180;2022-11-20T00:08:33;21.42;;;12.00;;
70455;SDS011;57916;51.996;5.180;2022-11-20T00:11:10;19.77;;;11.60;;
70455;SDS011;57916;51.996;5.180;2022-11-20T00:13:42;20.98;;;11.93;;
70455;SDS011;57916;51.996;5.180;2022-11-20T00:16:13;19.77;;;12.18;;
70455;SDS011;57916;51.996;5.180;2022-11-20T00:18:41;20.95;;;11.80;;
70455;SDS011;57916;51.996;5.180;2022-11-20T00:21:12;18.55;;;11.50;;
70455;SDS011;57916;51.996;5.180;2022-11-20T00:23:41;19.90;;;11.80;;
70455;SDS011;57916;51.996;5.180;2022-11-20T00:26:10;18.92;;;11.77;;
70455;SDS011;57916;51.996;5.180;2022-11-20T00:28:39;19.63;;;11.52;;
70455;SDS011;57916;51.996;5.180;2022-11-20T00:31:07;19.33;;;12.20;;
70455;SDS011;57916;51.996;5.180;2022-11-20T00:33:36;21.65;;;11.77;;
70455;SDS011;57916;51.996;5.180;2022-11-20T00:36:04;18.90;;;11.10;;
70455;SDS011;57916;51.996;5.180;2022-11-20T00:38:33;20.90;;;11.05;;
70455;SDS011;57916;51.996;5.180;2022-11-20T00:41:01;18.50;;;11.13;;
70455;SDS011;57916;51.996;5.180;2022-11-20T00:43:34;20.63;;;12.00;;
70455;SDS011;57916;51.996;5.180;2022-11-20T00:48:31;19.27;;;11.82;;
70455;SDS011;57916;51.996;5.180;2022-11-20T00:50:59;20.58;;;12.25;;
70455;SDS011;57916;51.996;5.180;2022-11-20T00:53:26;19.85;;;12.10;;
70455;SDS011;57916;51.996;5.180;2022-11-20T00:55:57;20.93;;;12.17;;
70455;SDS011;57916;51.996;5.180;2022-11-20T00:58:29;20.52;;;12.20;;
70455;SDS011;57916;51.996;5.180;2022-11-20T01:01:02;17.73;;;11.45;;
70455;SDS011;57916;51.996;5.180;2022-11-20T01:03:35;20.87;;;12.30;;
70455;SDS011;57916;51.996;5.180;2022-11-20T01:06:06;22.35;;;11.88;;
70455;SDS011;57916;51.996;5.180;2022-11-20T01:08:36;21.13;;;12.50;;
70455;SDS011;57916;51.996;5.180;2022-11-20T01:11:06;18.77;;;12.57;;
70455;SDS011;57916;51.996;5.180;2022-11-20T01:13:34;23.73;;;13.23;;
70455;SDS011;57916;51.996;5.180;2022-11-20T01:16:10;19.80;;;11.70;;
70455;SDS011;57916;51.996;5.180;2022-11-20T01:18:39;19.98;;;12.15;;
70455;SDS011;57916;51.996;5.180;2022-11-20T01:21:10;19.48;;;11.68;;
70455;SDS011;57916;51.996;5.180;2022-11-20T01:23:40;18.02;;;11.93;;
70455;SDS011;57916;51.996;5.180;2022-11-20T01:26:12;22.33;;;12.60;;
70455;SDS011;57916;51.996;5.180;2022-11-20T01:28:40;21.17;;;12.70;;
70455;SDS011;57916;51.996;5.180;2022-11-20T01:31:15;19.37;;;12.03;;
70455;SDS011;57916;51.996;5.180;2022-11-20T01:33:45;20.95;;;11.43;;
70455;SDS011;57916;51.996;5.180;2022-11-20T01:36:14;19.40;;;11.23;;
70455;SDS011;57916;51.996;5.180;2022-11-20T01:38:42;20.17;;;12.03;;
70455;SDS011;57916;51.996;5.180;2022-11-20T01:41:10;19.57;;;11.97;;
70455;SDS011;57916;51.996;5.180;2022-11-20T01:43:58;17.63;;;11.13;;
70455;SDS011;57916;51.996;5.180;2022-11-20T01:46:26;17.90;;;11.30;;
70455;SDS011;57916;51.996;5.180;2022-11-20T01:51:33;17.27;;;11.05;;
70455;SDS011;57916;51.996;5.180;2022-11-20T01:54:06;22.05;;;11.90;;
70455;SDS011;57916;51.996;5.180;2022-11-20T01:56:38;19.95;;;11.43;;
70455;SDS011;57916;51.996;5.180;2022-11-20T01:59:09;18.00;;;11.20;;
70455;SDS011;57916;51.996;5.180;2022-11-20T02:01:39;19.23;;;11.57;;
70455;SDS011;57916;51.996;5.180;2022-11-20T02:04:07;18.27;;;11.47;;
70455;SDS011;57916;51.996;5.180;2022-11-20T02:06:40;18.30;;;11.02;;
70455;SDS011;57916;51.996;5.180;2022-11-20T02:09:11;21.50;;;12.57;;
70455;SDS011;57916;51.996;5.180;2022-11-20T02:11:39;21.00;;;12.10;;
70455;SDS011;57916;51.996;5.180;2022-11-20T02:14:06;19.42;;;12.35;;
70455;SDS011;57916;51.996;5.180;2022-11-20T02:16:35;22.10;;;12.30;;
70455;SDS011;57916;51.996;5.180;2022-11-20T02:19:06;21.33;;;12.27;;
70455;SDS011;57916;51.996;5.180;2022-11-20T02:21:45;19.35;;;11.88;;
70455;SDS011;57916;51.996;5.180;2022-11-20T02:24:26;22.30;;;12.45;;
70455;SDS011;57916;51.996;5.180;2022-11-20T02:26:57;18.60;;;11.63;;
70455;SDS011;57916;51.996;5.180;2022-11-20T02:29:42;20.90;;;12.23;;
70455;SDS011;57916;51.996;5.180;2022-11-20T02:32:21;21.53;;;12.33;;
70455;SDS011;57916;51.996;5.180;2022-11-20T02:34:48;20.00;;;12.65;;
70455;SDS011;57916;51.996;5.180;2022-11-20T02:37:15;25.48;;;13.35;;
70455;SDS011;57916;51.996;5.180;2022-11-20T02:39:44;21.52;;;13.43;;
70455;SDS011;57916;51.996;5.180;2022-11-20T02:42:13;22.50;;;12.05;;
70455;SDS011;57916;51.996;5.180;2022-11-20T02:44:41;20.52;;;12.27;;
70455;SDS011;57916;51.996;5.180;2022-11-20T02:47:08;18.55;;;12.07;;
70455;SDS011;57916;51.996;5.180;2022-11-20T02:49:35;21.80;;;11.98;;
70455;SDS011;57916;51.996;5.180;2022-11-20T02:52:02;21.95;;;12.90;;
70455;SDS011;57916;51.996;5.180;2022-11-20T02:54:29;22.35;;;12.75;;
70455;SDS011;57916;51.996;5.180;2022-11-20T02:56:56;20.42;;;11.93;;
70455;SDS011;57916;51.996;5.180;2022-11-20T02:59:23;20.08;;;11.63;;
70455;SDS011;57916;51.996;5.180;2022-11-20T03:01:49;20.10;;;11.97;;
70455;SDS011;57916;51.996;5.180;2022-11-20T03:04:16;24.73;;;11.50;;
70455;SDS011;57916;51.996;5.180;2022-11-20T03:06:43;21.13;;;11.85;;
70455;SDS011;57916;51.996;5.180;2022-11-20T03:09:10;21.05;;;12.07;;
70455;SDS011;57916;51.996;5.180;2022-11-20T03:11:37;21.77;;;12.07;;
70455;SDS011;57916;51.996;5.180;2022-11-20T03:14:04;21.50;;;12.38;;
70455;SDS011;57916;51.996;5.180;2022-11-20T03:16:32;19.63;;;11.90;;
70455;SDS011;57916;51.996;5.180;2022-11-20T03:18:59;20.65;;;12.13;;
70455;SDS011;57916;51.996;5.180;2022-11-20T03:21:26;19.25;;;12.02;;
70455;SDS011;57916;51.996;5.180;2022-11-20T03:23:53;20.48;;;11.60;;
70455;SDS011;57916;51.996;5.180;2022-11-20T03:26:21;19.98;;;11.63;;
70455;SDS011;57916;51.996;5.180;2022-11-20T03:28:57;19.60;;;11.82;;
70455;SDS011;57916;51.996;5.180;2022-11-20T03:31:26;21.35;;;12.38;;
70455;SDS011;57916;51.996;5.180;2022-11-20T03:33:58;20.75;;;12.02;;
70455;SDS011;57916;51.996;5.180;2022-11-20T03:36:25;20.85;;;11.80;;
70455;SDS011;57916;51.996;5.180;2022-11-20T03:38:56;20.00;;;12.05;;
70455;SDS011;57916;51.996;5.180;2022-11-20T03:41:24;22.45;;;12.45;;
70455;SDS011;57916;51.996;5.180;2022-11-20T03:43:54;22.38;;;11.68;;
70455;SDS011;57916;51.996;5.180;2022-11-20T03:46:23;23.13;;;11.80;;
70455;SDS011;57916;51.996;5.180;2022-11-20T03:48:51;19.60;;;11.60;;
70455;SDS011;57916;51.996;5.180;2022-11-20T03:51:19;19.98;;;11.88;;
70455;SDS011;57916;51.996;5.180;2022-11-20T03:53:50;18.15;;;10.60;;
70455;SDS011;57916;51.996;5.180;2022-11-20T03:56:19;17.42;;;10.80;;
70455;SDS011;57916;51.996;5.180;2022-11-20T03:58:49;19.52;;;11.23;;
70455;SDS011;57916;51.996;5.180;2022-11-20T04:01:17;20.60;;;11.20;;
70455;SDS011;57916;51.996;5.180;2022-11-20T04:03:45;19.52;;;11.77;;
70455;SDS011;57916;51.996;5.180;2022-11-20T04:06:14;19.30;;;11.98;;
70455;SDS011;57916;51.996;5.180;2022-11-20T04:08:46;20.52;;;11.95;;
70455;SDS011;57916;51.996;5.180;2022-11-20T04:11:20;20.58;;;11.55;;
70455;SDS011;57916;51.996;5.180;2022-11-20T04:13:51;18.65;;;11.35;;
70455;SDS011;57916;51.996;5.180;2022-11-20T04:16:20;19.30;;;11.13;;
70455;SDS011;57916;51.996;5.180;2022-11-20T04:18:54;23.50;;;12.00;;
70455;SDS011;57916;51.996;5.180;2022-11-20T04:21:23;21.27;;;12.60;;
70455;SDS011;57916;51.996;5.180;2022-11-20T04:23:51;22.38;;;11.75;;
70455;SDS011;57916;51.996;5.180;2022-11-20T04:26:19;21.55;;;12.48;;
70455;SDS011;57916;51.996;5.180;2022-11-20T04:28:47;21.17;;;12.10;;
70455;SDS011;57916;51.996;5.180;2022-11-20T04:31:15;19.83;;;12.52;;
70455;SDS011;57916;51.996;5.180;2022-11-20T04:33:44;19.90;;;12.57;;
70455;SDS011;57916;51.996;5.180;2022-11-20T04:38:43;18.75;;;11.63;;
70455;SDS011;57916;51.996;5.180;2022-11-20T04:41:17;27.23;;;12.10;;
70455;SDS011;57916;51.996;5.180;2022-11-20T04:43:46;19.48;;;11.00;;
70455;SDS011;57916;51.996;5.180;2022-11-20T04:46:17;18.02;;;11.25;;
70455;SDS011;57916;51.996;5.180;2022-11-20T04:48:46;17.90;;;11.37;;
70455;SDS011;57916;51.996;5.180;2022-11-20T04:51:13;19.30;;;11.32;;
70455;SDS011;57916;51.996;5.180;2022-11-20T04:53:40;19.42;;;11.93;;
70455;SDS011;57916;51.996;5.180;2022-11-20T04:56:08;22.35;;;12.20;;
70455;SDS011;57916;51.996;5.180;2022-11-20T04:58:37;21.55;;;13.00;;
70455;SDS011;57916;51.996;5.180;2022-11-20T05:01:05;22.83;;;12.60;;
70455;SDS011;57916;51.996;5.180;2022-11-20T05:03:32;23.77;;;11.82;;
70455;SDS011;57916;51.996;5.180;2022-11-20T05:06:05;22.55;;;12.43;;
70455;SDS011;57916;51.996;5.180;2022-11-20T05:08:33;20.20;;;11.95;;
70455;SDS011;57916;51.996;5.180;2022-11-20T05:11:04;19.13;;;11.70;;
70455;SDS011;57916;51.996;5.180;2022-11-20T05:13:33;20.50;;;12.27;;
70455;SDS011;57916;51.996;5.180;2022-11-20T05:16:04;19.92;;;11.32;;
70455;SDS011;57916;51.996;5.180;2022-11-20T05:18:36;21.33;;;11.63;;
70455;SDS011;57916;51.996;5.180;2022-11-20T05:21:04;19.60;;;10.65;;
70455;SDS011;57916;51.996;5.180;2022-11-20T05:23:32;19.33;;;11.48;;
70455;SDS011;57916;51.996;5.180;2022-11-20T05:25:59;17.92;;;11.32;;
70455;SDS011;57916;51.996;5.180;2022-11-20T05:28:27;17.77;;;10.90;;
70455;SDS011;57916;51.996;5.180;2022-11-20T05:30:55;19.80;;;11.52;;
70455;SDS011;57916;51.996;5.180;2022-11-20T05:33:22;20.17;;;11.88;;
70455;SDS011;57916;51.996;5.180;2022-11-20T05:35:49;20.00;;;11.88;;
70455;SDS011;57916;51.996;5.180;2022-11-20T05:38:16;20.65;;;10.85;;
70455;SDS011;57916;51.996;5.180;2022-11-20T05:40:43;17.42;;;10.90;;
70455;SDS011;57916;51.996;5.180;2022-11-20T05:43:10;22.25;;;10.95;;
70455;SDS011;57916;51.996;5.180;2022-11-20T05:45:36;18.00;;;10.20;;
70455;SDS011;57916;51.996;5.180;2022-11-20T05:48:03;16.98;;;10.55;;
70455;SDS011;57916;51.996;5.180;2022-11-20T05:50:30;18.77;;;10.60;;
70455;SDS011;57916;51.996;5.180;2022-11-20T05:52:58;21.50;;;11.25;;
70455;SDS011;57916;51.996;5.180;2022-11-20T05:55:26;21.00;;;11.60;;
70455;SDS011;57916;51.996;5.180;2022-11-20T05:57:53;21.63;;;11.25;;
70455;SDS011;57916;51.996;5.180;2022-11-20T06:00:21;17.60;;;11.10;;
70455;SDS011;57916;51.996;5.180;2022-11-20T06:02:48;21.73;;;11.75;;
70455;SDS011;57916;51.996;5.180;2022-11-20T06:05:15;21.65;;;12.68;;
70455;SDS011;57916;51.996;5.180;2022-11-20T06:07:42;21.08;;;12.30;;
70455;SDS011;57916;51.996;5.180;2022-11-20T06:10:09;23.98;;;11.73;;
70455;SDS011;57916;51.996;5.180;2022-11-20T06:12:36;17.87;;;11.20;;
70455;SDS011;57916;51.996;5.180;2022-11-20T06:15:04;17.63;;;11.02;;
70455;SDS011;57916;51.996;5.180;2022-11-20T06:17:32;21.02;;;11.40;;
70455;SDS011;57916;51.996;5.180;2022-11-20T06:19:59;19.02;;;11.35;;
70455;SDS011;57916;51.996;5.180;2022-11-20T06:22:25;17.77;;;11.18;;
70455;SDS011;57916;51.996;5.180;2022-11-20T06:24:52;21.20;;;12.00;;
70455;SDS011;57916;51.996;5.180;2022-11-20T06:27:19;20.40;;;12.25;;
70455;SDS011;57916;51.996;5.180;2022-11-20T06:29:46;20.35;;;11.73;;
70455;SDS011;57916;51.996;5.180;2022-11-20T06:32:13;20.90;;;11.30;;
70455;SDS011;57916;51.996;5.180;2022-11-20T06:34:40;20.65;;;11.27;;
70455;SDS011;57916;51.996;5.180;2022-11-20T06:37:07;18.63;;;10.80;;
70455;SDS011;57916;51.996;5.180;2022-11-20T06:39:33;21.83;;;11.23;;
70455;SDS011;57916;51.996;5.180;2022-11-20T06:42:00;19.10;;;10.93;;
70455;SDS011;57916;51.996;5.180;2022-11-20T06:44:28;18.33;;;10.98;;
70455;SDS011;57916;51.996;5.180;2022-11-20T06:46:54;18.38;;;11.05;;
70455;SDS011;57916;51.996;5.180;2022-11-20T06:49:21;20.77;;;11.77;;
70455;SDS011;57916;51.996;5.180;2022-11-20T06:51:49;19.80;;;11.50;;
70455;SDS011;57916;51.996;5.180;2022-11-20T06:54:16;20.85;;;11.82;;
70455;SDS011;57916;51.996;5.180;2022-11-20T06:56:45;20.53;;;11.80;;
70455;SDS011;57916;51.996;5.180;2022-11-20T06:59:15;21.25;;;11.80;;
70455;SDS011;57916;51.996;5.180;2022-11-20T07:01:42;19.42;;;11.77;;
70455;SDS011;57916;51.996;5.180;2022-11-20T07:04:09;20.52;;;11.65;;
70455;SDS011;57916;51.996;5.180;2022-11-20T07:06:36;21.38;;;11.88;;
70455;SDS011;57916;51.996;5.180;2022-11-20T07:09:03;18.87;;;11.90;;
70455;SDS011;57916;51.996;5.180;2022-11-20T07:11:36;20.40;;;11.88;;
70455;SDS011;57916;51.996;5.180;2022-11-20T07:14:03;20.05;;;11.85;;
70455;SDS011;57916;51.996;5.180;2022-11-20T07:16:30;21.23;;;11.82;;
70455;SDS011;57916;51.996;5.180;2022-11-20T07:18:57;25.80;;;12.70;;
70455;SDS011;57916;51.996;5.180;2022-11-20T07:21:24;22.73;;;12.73;;
70455;SDS011;57916;51.996;5.180;2022-11-20T07:23:51;21.05;;;12.60;;
70455;SDS011;57916;51.996;5.180;2022-11-20T07:26:20;23.80;;;12.60;;
70455;SDS011;57916;51.996;5.180;2022-11-20T07:28:47;22.52;;;12.98;;
70455;SDS011;57916;51.996;5.180;2022-11-20T07:31:13;21.88;;;13.15;;
70455;SDS011;57916;51.996;5.180;2022-11-20T07:33:45;25.77;;;12.95;;
70455;SDS011;57916;51.996;5.180;2022-11-20T07:36:12;21.50;;;12.20;;
70455;SDS011;57916;51.996;5.180;2022-11-20T07:38:39;24.60;;;13.25;;
70455;SDS011;57916;51.996;5.180;2022-11-20T07:41:05;22.83;;;12.02;;
70455;SDS011;57916;51.996;5.180;2022-11-20T07:43:32;19.25;;;12.00;;
70455;SDS011;57916;51.996;5.180;2022-11-20T07:46:06;16.13;;;9.57;;
70455;SDS011;57916;51.996;5.180;2022-11-20T07:48:33;24.23;;;13.70;;
70455;SDS011;57916;51.996;5.180;2022-11-20T07:51:00;25.60;;;13.82;;
70455;SDS011;57916;51.996;5.180;2022-11-20T07:53:27;24.88;;;12.43;;
70455;SDS011;57916;51.996;5.180;2022-11-20T07:55:54;29.88;;;16.27;;
70455;SDS011;57916;51.996;5.180;2022-11-20T07:58:21;23.58;;;13.45;;
70455;SDS011;57916;51.996;5.180;2022-11-20T08:00:47;26.48;;;15.30;;
70455;SDS011;57916;51.996;5.180;2022-11-20T08:03:15;25.90;;;13.90;;
70455;SDS011;57916;51.996;5.180;2022-11-20T08:05:49;26.80;;;14.98;;
70455;SDS011;57916;51.996;5.180;2022-11-20T08:08:16;70.03;;;36.50;;
70455;SDS011;57916;51.996;5.180;2022-11-20T08:10:43;34.40;;;20.13;;
70455;SDS011;57916;51.996;5.180;2022-11-20T08:13:10;26.27;;;15.90;;
70455;SDS011;57916;51.996;5.180;2022-11-20T08:15:55;30.95;;;15.18;;
70455;SDS011;57916;51.996;5.180;2022-11-20T08:18:22;27.20;;;14.95;;
70455;SDS011;57916;51.996;5.180;2022-11-20T08:20:57;25.55;;;14.77;;
70455;SDS011;57916;51.996;5.180;2022-11-20T08:23:28;29.30;;;14.88;;
70455;SDS011;57916;51.996;5.180;2022-11-20T08:25:55;25.33;;;14.60;;
70455;SDS011;57916;51.996;5.180;2022-11-20T08:28:21;26.90;;;15.80;;
70455;SDS011;57916;51.996;5.180;2022-11-20T08:30:49;27.48;;;15.77;;
70455;SDS011;57916;51.996;5.180;2022-11-20T08:33:16;30.63;;;16.83;;
70455;SDS011;57916;51.996;5.180;2022-11-20T08:35:44;31.17;;;16.00;;
70455;SDS011;57916;51.996;5.180;2022-11-20T08:38:11;28.30;;;15.88;;
70455;SDS011;57916;51.996;5.180;2022-11-20T08:40:38;29.70;;;16.37;;
70455;SDS011;57916;51.996;5.180;2022-11-20T08:43:05;36.72;;;19.35;;
70455;SDS011;57916;51.996;5.180;2022-11-20T08:45:32;38.25;;;18.20;;
70455;SDS011;57916;51.996;5.180;2022-11-20T08:48:01;31.65;;;16.35;;
70455;SDS011;57916;51.996;5.180;2022-11-20T08:50:29;28.33;;;15.83;;
70455;SDS011;57916;51.996;5.180;2022-11-20T08:53:03;31.92;;;18.40;;
70455;SDS011;57916;51.996;5.180;2022-11-20T08:55:31;27.90;;;16.20;;
70455;SDS011;57916;51.996;5.180;2022-11-20T08:57:58;32.38;;;18.25;;
70455;SDS011;57916;51.996;5.180;2022-11-20T09:00:29;25.63;;;15.25;;
70455;SDS011;57916;51.996;5.180;2022-11-20T09:02:56;32.22;;;16.10;;
70455;SDS011;57916;51.996;5.180;2022-11-20T09:05:24;31.13;;;17.27;;
70455;SDS011;57916;51.996;5.180;2022-11-20T09:07:51;28.52;;;16.50;;
70455;SDS011;57916;51.996;5.180;2022-11-20T09:10:18;31.55;;;16.98;;
70455;SDS011;57916;51.996;5.180;2022-11-20T09:12:50;28.00;;;17.27;;
70455;SDS011;57916;51.996;5.180;2022-11-20T09:15:18;26.98;;;15.98;;
70455;SDS011;57916;51.996;5.180;2022-11-20T09:17:52;35.55;;;16.85;;
70455;SDS011;57916;51.996;5.180;2022-11-20T09:20:19;28.70;;;16.30;;
70455;SDS011;57916;51.996;5.180;2022-11-20T09:22:47;29.13;;;16.63;;
70455;SDS011;57916;51.996;5.180;2022-11-20T09:25:14;30.85;;;17.02;;
70455;SDS011;57916;51.996;5.180;2022-11-20T09:27:41;33.87;;;17.10;;
70455;SDS011;57916;51.996;5.180;2022-11-20T09:30:10;30.90;;;17.10;;
70455;SDS011;57916;51.996;5.180;2022-11-20T09:32:38;36.38;;;17.55;;
70455;SDS011;57916;51.996;5.180;2022-11-20T09:35:06;29.00;;;16.95;;
70455;SDS011;57916;51.996;5.180;2022-11-20T09:37:33;34.08;;;17.90;;
70455;SDS011;57916;51.996;5.180;2022-11-20T09:40:00;29.65;;;17.27;;
70455;SDS011;57916;51.996;5.180;2022-11-20T09:45:31;29.95;;;17.35;;
70455;SDS011;57916;51.996;5.180;2022-11-20T09:48:20;30.33;;;17.90;;
70455;SDS011;57916;51.996;5.180;2022-11-20T09:56:25;30.95;;;18.17;;
70455;SDS011;57916;51.996;5.180;2022-11-20T09:58:54;30.73;;;17.83;;
70455;SDS011;57916;51.996;5.180;2022-11-20T10:01:26;29.63;;;18.05;;
70455;SDS011;57916;51.996;5.180;2022-11-20T10:04:11;29.95;;;18.00;;
70455;SDS011;57916;51.996;5.180;2022-11-20T10:07:05;29.40;;;17.70;;
70455;SDS011;57916;51.996;5.180;2022-11-20T10:09:58;29.38;;;17.65;;
70455;SDS011;57916;51.996;5.180;2022-11-20T10:20:29;33.67;;;18.87;;
70455;SDS011;57916;51.996;5.180;2022-11-20T10:26:22;31.23;;;18.53;;
70455;SDS011;57916;51.996;5.180;2022-11-20T10:31:40;33.28;;;18.30;;
70455;SDS011;57916;51.996;5.180;2022-11-20T10:34:18;31.55;;;17.42;;
70455;SDS011;57916;51.996;5.180;2022-11-20T10:36:55;32.42;;;18.33;;
70455;SDS011;57916;51.996;5.180;2022-11-20T10:39:35;31.30;;;17.93;;
70455;SDS011;57916;51.996;5.180;2022-11-20T10:42:11;29.15;;;18.27;;
70455;SDS011;57916;51.996;5.180;2022-11-20T10:44:47;33.28;;;18.23;;
70455;SDS011;57916;51.996;5.180;2022-11-20T10:47:33;33.28;;;18.88;;
70455;SDS011;57916;51.996;5.180;2022-11-20T10:50:04;33.93;;;19.80;;
70455;SDS011;57916;51.996;5.180;2022-11-20T10:52:48;32.72;;;19.00;;
70455;SDS011;57916;51.996;5.180;2022-11-20T10:58:04;34.13;;;19.25;;
70455;SDS011;57916;51.996;5.180;2022-11-20T11:00:40;26.63;;;14.50;;
70455;SDS011;57916;51.996;5.180;2022-11-20T11:03:26;35.88;;;19.15;;
70455;SDS011;57916;51.996;5.180;2022-11-20T11:05:58;37.70;;;17.75;;
70455;SDS011;57916;51.996;5.180;2022-11-20T11:08:32;37.78;;;20.20;;
70455;SDS011;57916;51.996;5.180;2022-11-20T11:14:06;38.90;;;20.20;;
70455;SDS011;57916;51.996;5.180;2022-11-20T11:16:50;37.73;;;20.37;;
70455;SDS011;57916;51.996;5.180;2022-11-20T11:19:22;42.42;;;21.20;;
70455;SDS011;57916;51.996;5.180;2022-11-20T11:21:51;40.10;;;20.55;;
70455;SDS011;57916;51.996;5.180;2022-11-20T11:27:12;48.65;;;23.55;;
70455;SDS011;57916;51.996;5.180;2022-11-20T11:29:45;44.05;;;21.50;;
70455;SDS011;57916;51.996;5.180;2022-11-20T11:32:13;44.75;;;21.77;;
70455;SDS011;57916;51.996;5.180;2022-11-20T11:34:45;47.40;;;22.93;;
70455;SDS011;57916;51.996;5.180;2022-11-20T11:37:24;48.22;;;22.98;;
70455;SDS011;57916;51.996;5.180;2022-11-20T11:39:58;45.72;;;22.50;;
70455;SDS011;57916;51.996;5.180;2022-11-20T11:42:59;45.38;;;22.55;;
70455;SDS011;57916;51.996;5.180;2022-11-20T11:45:30;44.17;;;21.65;;
70455;SDS011;57916;51.996;5.180;2022-11-20T11:47:58;41.97;;;21.20;;
70455;SDS011;57916;51.996;5.180;2022-11-20T11:50:29;46.42;;;22.02;;
70455;SDS011;57916;51.996;5.180;2022-11-20T11:55:52;43.53;;;21.40;;
70455;SDS011;57916;51.996;5.180;2022-11-20T11:58:37;50.28;;;23.05;;
70455;SDS011;57916;51.996;5.180;2022-11-20T12:06:55;51.17;;;22.60;;
70455;SDS011;57916;51.996;5.180;2022-11-20T12:09:46;49.95;;;23.73;;
70455;SDS011;57916;51.996;5.180;2022-11-20T12:12:20;53.80;;;25.08;;
70455;SDS011;57916;51.996;5.180;2022-11-20T12:14:51;58.60;;;25.75;;
70455;SDS011;57916;51.996;5.180;2022-11-20T12:17:21;59.35;;;25.33;;
70455;SDS011;57916;51.996;5.180;2022-11-20T12:19:48;53.17;;;24.80;;
70455;SDS011;57916;51.996;5.180;2022-11-20T12:25:02;57.95;;;24.25;;
70455;SDS011;57916;51.996;5.180;2022-11-20T12:27:56;51.90;;;21.77;;
70455;SDS011;57916;51.996;5.180;2022-11-20T12:36:43;75.38;;;35.88;;
70455;SDS011;57916;51.996;5.180;2022-11-20T12:42:08;56.70;;;25.07;;
70455;SDS011;57916;51.996;5.180;2022-11-20T12:45:19;65.72;;;27.15;;
70455;SDS011;57916;51.996;5.180;2022-11-20T13:01:50;57.05;;;25.05;;
70455;SDS011;57916;51.996;5.180;2022-11-20T13:06:54;54.23;;;23.10;;
70455;SDS011;57916;51.996;5.180;2022-11-20T13:09:23;51.58;;;21.67;;
70455;SDS011;57916;51.996;5.180;2022-11-20T13:12:08;51.57;;;24.23;;
70455;SDS011;57916;51.996;5.180;2022-11-20T13:20:03;53.72;;;24.35;;
70455;SDS011;57916;51.996;5.180;2022-11-20T13:22:42;54.05;;;24.55;;
70455;SDS011;57916;51.996;5.180;2022-11-20T13:27:50;55.45;;;24.88;;
70455;SDS011;57916;51.996;5.180;2022-11-20T13:30:19;57.58;;;25.73;;
70455;SDS011;57916;51.996;5.180;2022-11-20T13:32:48;63.70;;;26.93;;
70455;SDS011;57916;51.996;5.180;2022-11-20T13:35:33;62.53;;;28.53;;
70455;SDS011;57916;51.996;5.180;2022-11-20T13:40:28;70.85;;;30.45;;
70455;SDS011;57916;51.996;5.180;2022-11-20T13:43:03;73.68;;;31.88;;
70455;SDS011;57916;51.996;5.180;2022-11-20T13:45:31;65.32;;;29.73;;
70455;SDS011;57916;51.996;5.180;2022-11-20T13:48:02;66.20;;;30.25;;
70455;SDS011;57916;51.996;5.180;2022-11-20T13:56:11;61.92;;;26.65;;
70455;SDS011;57916;51.996;5.180;2022-11-20T14:01:45;73.60;;;29.73;;
70455;SDS011;57916;51.996;5.180;2022-11-20T14:04:19;73.53;;;27.80;;
70455;SDS011;57916;51.996;5.180;2022-11-20T14:06:53;79.95;;;29.50;;
70455;SDS011;57916;51.996;5.180;2022-11-20T14:09:31;67.78;;;24.77;;
70455;SDS011;57916;51.996;5.180;2022-11-20T14:11:59;76.28;;;29.98;;
70455;SDS011;57916;51.996;5.180;2022-11-20T14:14:29;39.95;;;18.35;;
70455;SDS011;57916;51.996;5.180;2022-11-20T14:17:07;75.47;;;28.23;;
70455;SDS011;57916;51.996;5.180;2022-11-20T14:19:34;84.90;;;31.13;;
70455;SDS011;57916;51.996;5.180;2022-11-20T14:22:17;76.85;;;28.10;;
70455;SDS011;57916;51.996;5.180;2022-11-20T14:24:49;84.30;;;29.85;;
70455;SDS011;57916;51.996;5.180;2022-11-20T14:27:39;84.93;;;30.88;;
70455;SDS011;57916;51.996;5.180;2022-11-20T14:30:12;55.70;;;21.50;;
70455;SDS011;57916;51.996;5.180;2022-11-20T14:32:45;88.45;;;32.03;;
70455;SDS011;57916;51.996;5.180;2022-11-20T14:35:35;102.05;;;33.22;;
70455;SDS011;57916;51.996;5.180;2022-11-20T14:38:01;87.70;;;31.23;;
70455;SDS011;57916;51.996;5.180;2022-11-20T14:40:33;87.97;;;29.03;;
70455;SDS011;57916;51.996;5.180;2022-11-20T14:43:04;81.28;;;30.27;;
70455;SDS011;57916;51.996;5.180;2022-11-20T14:46:02;93.55;;;33.08;;
70455;SDS011;57916;51.996;5.180;2022-11-20T14:48:46;84.35;;;29.48;;
70455;SDS011;57916;51.996;5.180;2022-11-20T14:51:26;84.35;;;31.13;;
70455;SDS011;57916;51.996;5.180;2022-11-20T14:54:14;92.68;;;33.08;;
70455;SDS011;57916;51.996;5.180;2022-11-20T14:56:59;98.00;;;34.03;;
70455;SDS011;57916;51.996;5.180;2022-11-20T14:59:31;93.50;;;32.38;;
70455;SDS011;57916;51.996;5.180;2022-11-20T15:02:01;91.88;;;30.00;;
70455;SDS011;57916;51.996;5.180;2022-11-20T15:04:31;62.60;;;22.92;;
70455;SDS011;57916;51.996;5.180;2022-11-20T15:06:59;78.07;;;25.75;;
70455;SDS011;57916;51.996;5.180;2022-11-20T15:09:26;91.57;;;30.45;;
70455;SDS011;57916;51.996;5.180;2022-11-20T15:12:03;99.05;;;31.27;;
70455;SDS011;57916;51.996;5.180;2022-11-20T15:14:30;65.97;;;22.83;;
70455;SDS011;57916;51.996;5.180;2022-11-20T15:17:00;104.90;;;33.63;;
70455;SDS011;57916;51.996;5.180;2022-11-20T15:19:27;91.43;;;29.17;;
70455;SDS011;57916;51.996;5.180;2022-11-20T15:21:54;95.53;;;30.43;;
70455;SDS011;57916;51.996;5.180;2022-11-20T15:24:21;106.65;;;32.45;;
70455;SDS011;57916;51.996;5.180;2022-11-20T15:26:49;98.78;;;29.67;;
70455;SDS011;57916;51.996;5.180;2022-11-20T15:29:16;66.35;;;21.88;;
70455;SDS011;57916;51.996;5.180;2022-11-20T15:31:45;67.85;;;23.98;;
70455;SDS011;57916;51.996;5.180;2022-11-20T15:34:12;91.40;;;28.35;;
70455;SDS011;57916;51.996;5.180;2022-11-20T15:36:40;89.00;;;28.50;;
70455;SDS011;57916;51.996;5.180;2022-11-20T15:39:08;88.50;;;28.27;;
70455;SDS011;57916;51.996;5.180;2022-11-20T15:41:36;90.57;;;28.10;;
70455;SDS011;57916;51.996;5.180;2022-11-20T15:44:04;51.25;;;18.67;;
70455;SDS011;57916;51.996;5.180;2022-11-20T15:46:32;86.20;;;27.70;;
70455;SDS011;57916;51.996;5.180;2022-11-20T15:49:04;37.83;;;14.43;;
70455;SDS011;57916;51.996;5.180;2022-11-20T15:54:10;52.80;;;19.08;;
70455;SDS011;57916;51.996;5.180;2022-11-20T15:56:38;70.40;;;24.20;;
70455;SDS011;57916;51.996;5.180;2022-11-20T15:59:05;67.40;;;21.80;;
70455;SDS011;57916;51.996;5.180;2022-11-20T16:01:33;85.85;;;28.23;;
70455;SDS011;57916;51.996;5.180;2022-11-20T16:04:00;108.72;;;29.80;;
70455;SDS011;57916;51.996;5.180;2022-11-20T16:06:27;32.75;;;12.68;;
70455;SDS011;57916;51.996;5.180;2022-11-20T16:08:54;77.63;;;23.83;;
70455;SDS011;57916;51.996;5.180;2022-11-20T16:11:21;20.30;;;10.27;;
70455;SDS011;57916;51.996;5.180;2022-11-20T16:13:48;36.63;;;14.00;;
70455;SDS011;57916;51.996;5.180;2022-11-20T16:16:34;56.38;;;17.92;;
70455;SDS011;57916;51.996;5.180;2022-11-20T16:19:03;52.58;;;17.75;;